Lagoon City, Ontario

Past 24 Hour Conditions

Date / Time
(EDT)
Conditions Temp
(°F)
Humidity
(%)
Dew Point
(°F)
Wind
(mph)
Pressure
(inches)
Visibility
(miles)
26 April 2015
8:00 N/A 37 77 31 N 8 29.9 N/A
7:00 N/A 37 74 30 NNW 9 29.8 N/A
6:00 N/A 39 73 31 NNW 6 29.8 N/A
5:00 N/A 40 70 31 N 5 29.8 N/A
4:00 N/A 41 68 31 NNE 5 29.8 N/A
3:00 N/A 39 73 32 NNE 5 29.8 N/A
2:00 N/A 37 75 30 NNE 6 29.8 N/A
1:00 N/A 37 77 31 N 7 29.8 N/A
00:00 N/A 38 76 31 N 8 29.8 N/A
25 April 2015
23:00 N/A 39 74 31 N 7 29.8 N/A
22:00 N/A 40 72 31 NNW 10 29.8 N/A
21:00 N/A 42 64 30 NNW 11 29.8 N/A
20:00 N/A 44 56 29 NW 15 29.8 N/A
19:00 N/A 45 55 30 NW 17 29.8 N/A
18:00 N/A 46   55 31 WNW 12 29.8 N/A
17:00 N/A 41 72 33 WSW 13 29.8 N/A
16:00 N/A 41 71 32 SW 12 29.8 N/A
15:00 N/A 40 68 30 WSW 13 29.9 N/A
14:00 N/A 40 64 29 WSW 10 29.9 N/A
13:00 N/A 39 68 30 SW 10 29.9 N/A
12:00 N/A 39 60 26 WSW 11 29.9 N/A
11:00 N/A 39 56 24 WNW 13 29.9 N/A
10:00 N/A 37 54 23 NW 9 29.9 N/A
9:00 N/A 35 67 26 NNW 6 30.0 N/A
8:00 N/A 33   79 27 NW 6 30.0 N/A
N/A Not available
↑ Highest temperature
↓ Lowest temperature

If you require additional historical weather information, please visit Climate Data Online.

What we are doing

Date modified: